createdAt,value
2023-04-15T00:01:45.387Z,1.00
2023-04-15T00:04:13.310Z,1.00
2023-04-15T00:06:41.555Z,1.30
2023-04-15T00:09:09.272Z,0.90
2023-04-15T00:11:38.278Z,1.20
2023-04-15T00:14:06.172Z,1.30
2023-04-15T00:16:33.925Z,1.00
2023-04-15T00:19:01.872Z,1.73
2023-04-15T00:21:29.871Z,1.13
2023-04-15T00:23:57.583Z,1.00
2023-04-15T00:26:25.263Z,1.00
2023-04-15T00:28:54.633Z,2.60
2023-04-15T00:31:22.931Z,1.00
2023-04-15T00:33:50.783Z,1.00
2023-04-15T00:36:18.521Z,1.00
2023-04-15T00:38:46.524Z,1.00
2023-04-15T00:41:14.405Z,1.10
2023-04-15T00:43:42.157Z,1.00
2023-04-15T00:46:13.837Z,0.90
2023-04-15T00:48:42.381Z,1.00
2023-04-15T00:51:10.621Z,1.00
2023-04-15T00:53:38.328Z,1.10
2023-04-15T00:56:07.388Z,1.10
2023-04-15T00:58:35.218Z,1.00
2023-04-15T01:01:02.977Z,1.00
2023-04-15T01:03:32.656Z,0.90
2023-04-15T01:06:03.917Z,0.90
2023-04-15T01:08:32.637Z,0.90
2023-04-15T01:11:03.371Z,1.00
2023-04-15T01:13:32.238Z,1.57
2023-04-15T01:15:59.957Z,1.00
2023-04-15T01:18:28.540Z,1.43
2023-04-15T01:20:58.070Z,0.90
2023-04-15T01:23:26.230Z,0.90
2023-04-15T01:25:55.448Z,0.90
2023-04-15T01:28:23.207Z,1.10
2023-04-15T01:30:50.962Z,1.00
2023-04-15T01:33:18.661Z,0.93
2023-04-15T01:35:47.752Z,1.10
2023-04-15T01:38:16.180Z,1.00
2023-04-15T01:40:46.048Z,1.20
2023-04-15T01:43:15.298Z,1.10
2023-04-15T01:45:43.675Z,1.00
2023-04-15T01:48:12.258Z,1.10
2023-04-15T01:50:39.956Z,0.90
2023-04-15T01:53:07.650Z,0.90
2023-04-15T01:55:35.559Z,0.90
2023-04-15T01:58:03.249Z,0.90
2023-04-15T02:00:32.458Z,1.53
2023-04-15T02:03:00.786Z,1.63
2023-04-15T02:05:28.830Z,0.93
2023-04-15T02:07:56.551Z,1.00
2023-04-15T02:10:24.350Z,1.00
2023-04-15T02:12:52.020Z,1.00
2023-04-15T02:15:20.023Z,1.00
2023-04-15T02:17:52.725Z,0.90
2023-04-15T02:20:22.424Z,1.00
2023-04-15T02:22:50.593Z,0.90
2023-04-15T02:25:18.441Z,1.00
2023-04-15T02:27:46.135Z,1.00
2023-04-15T02:30:13.982Z,0.97
2023-04-15T02:32:44.755Z,1.00
2023-04-15T02:35:14.178Z,1.10
2023-04-15T02:37:43.832Z,1.00
2023-04-15T02:40:13.501Z,1.00
2023-04-15T02:42:41.813Z,1.00
2023-04-15T02:45:13.322Z,1.00
2023-04-15T02:47:43.231Z,1.13
2023-04-15T02:50:15.070Z,0.90
2023-04-15T02:52:44.601Z,1.00
2023-04-15T02:55:12.578Z,1.00
2023-04-15T02:57:41.087Z,1.00
2023-04-15T03:00:11.800Z,1.20
2023-04-15T03:02:42.993Z,1.00
2023-04-15T03:05:14.756Z,1.00
2023-04-15T03:07:48.855Z,0.90
2023-04-15T03:10:16.867Z,0.90
2023-04-15T03:12:44.847Z,0.90
2023-04-15T03:15:18.153Z,1.30
2023-04-15T03:17:50.522Z,0.97
2023-04-15T03:20:20.305Z,0.97
2023-04-15T03:22:49.406Z,1.00
2023-04-15T03:25:17.503Z,0.97
2023-04-15T03:27:45.292Z,0.97
2023-04-15T03:30:14.856Z,1.10
2023-04-15T03:32:42.759Z,1.00
2023-04-15T03:35:10.799Z,0.97
2023-04-15T03:37:40.013Z,1.00
2023-04-15T03:40:09.727Z,0.97
2023-04-15T03:42:37.450Z,0.97
2023-04-15T03:45:05.972Z,1.00
2023-04-15T03:47:33.704Z,1.00
2023-04-15T03:50:01.406Z,1.10
2023-04-15T03:52:29.165Z,1.00
2023-04-15T03:54:58.231Z,0.93
2023-04-15T03:57:26.333Z,1.00
2023-04-15T03:59:54.070Z,1.10
2023-04-15T04:02:22.996Z,1.00
2023-04-15T04:04:51.173Z,1.63
2023-04-15T04:07:19.537Z,1.00
2023-04-15T04:09:47.539Z,1.00
2023-04-15T04:12:16.804Z,0.97
2023-04-15T04:14:44.505Z,1.00
2023-04-15T04:17:12.300Z,1.00
2023-04-15T04:19:40.119Z,0.93
2023-04-15T04:22:07.893Z,1.00
2023-04-15T04:24:35.680Z,1.10
2023-04-15T04:27:03.387Z,0.97
2023-04-15T04:29:32.588Z,2.70
2023-04-15T04:32:00.602Z,0.97
2023-04-15T04:34:28.338Z,0.97
2023-04-15T04:36:56.547Z,1.00
2023-04-15T04:39:24.318Z,1.20
2023-04-15T04:41:52.140Z,1.00
2023-04-15T04:44:19.875Z,1.40
2023-04-15T04:46:48.917Z,0.90
2023-04-15T04:49:16.812Z,1.13
2023-04-15T04:51:44.586Z,0.90
2023-04-15T04:54:12.322Z,1.87
2023-04-15T04:56:40.257Z,1.00
2023-04-15T04:59:07.997Z,1.00
2023-04-15T05:01:35.980Z,0.90
2023-04-15T05:04:06.138Z,1.00
2023-04-15T05:06:33.934Z,0.90
2023-04-15T05:09:01.816Z,1.00
2023-04-15T05:11:29.691Z,1.00
2023-04-15T05:13:58.018Z,0.90
2023-04-15T05:16:25.885Z,0.97
2023-04-15T05:18:53.582Z,0.90
2023-04-15T05:21:22.735Z,1.00
2023-04-15T05:23:50.443Z,1.90
2023-04-15T05:26:18.607Z,1.10
2023-04-15T05:28:46.332Z,1.63
2023-04-15T05:31:14.455Z,1.00
2023-04-15T05:33:42.203Z,5.57
2023-04-15T05:36:10.279Z,1.00
2023-04-15T05:38:39.531Z,1.00
2023-04-15T05:41:07.265Z,1.00
2023-04-15T05:43:34.981Z,1.00
2023-04-15T05:46:02.755Z,1.57
2023-04-15T05:48:30.614Z,1.00
2023-04-15T05:50:58.781Z,1.00
2023-04-15T05:53:26.545Z,1.00
2023-04-15T05:55:55.739Z,1.00
2023-04-15T05:58:23.514Z,1.00
2023-04-15T06:00:51.289Z,1.00
2023-04-15T06:03:19.147Z,1.10
2023-04-15T06:05:47.140Z,0.93
2023-04-15T06:08:14.917Z,1.37
2023-04-15T06:10:42.643Z,1.00
2023-04-15T06:13:11.664Z,1.00
2023-04-15T06:15:39.393Z,1.00
2023-04-15T06:18:07.066Z,1.00
2023-04-15T06:20:34.856Z,1.00
2023-04-15T06:23:02.548Z,1.00
2023-04-15T06:25:30.231Z,1.10
2023-04-15T06:27:57.928Z,0.93
2023-04-15T06:30:26.988Z,1.00
2023-04-15T06:32:55.857Z,1.40
2023-04-15T06:35:23.590Z,1.27
2023-04-15T06:37:51.553Z,1.00
2023-04-15T06:40:19.231Z,1.10
2023-04-15T06:42:47.016Z,1.00
2023-04-15T06:45:17.036Z,2.23
2023-04-15T06:47:46.149Z,1.00
2023-04-15T06:50:14.410Z,1.40
2023-04-15T06:52:42.315Z,1.00
2023-04-15T06:55:10.370Z,0.90
2023-04-15T06:57:38.075Z,1.00
2023-04-15T07:00:07.344Z,1.00
2023-04-15T07:02:35.078Z,1.00
2023-04-15T07:05:04.551Z,0.90
2023-04-15T07:07:32.238Z,1.00
2023-04-15T07:10:01.862Z,1.00
2023-04-15T07:12:29.755Z,1.10
2023-04-15T07:14:57.583Z,0.90
2023-04-15T07:17:25.410Z,0.97
2023-04-15T07:19:53.106Z,1.00
2023-04-15T07:22:22.163Z,1.00
2023-04-15T07:24:49.828Z,1.00
2023-04-15T07:27:17.866Z,1.00
2023-04-15T07:29:45.540Z,0.97
2023-04-15T07:32:13.258Z,1.43
2023-04-15T07:34:41.472Z,2.20
2023-04-15T07:37:09.198Z,3.27
2023-04-15T07:39:38.227Z,1.00
2023-04-15T07:42:06.037Z,1.43
2023-04-15T07:44:33.768Z,1.00
2023-04-15T07:47:03.211Z,1.10
2023-04-15T07:49:31.367Z,3.40
2023-04-15T07:51:59.976Z,1.30
2023-04-15T07:54:27.687Z,1.47
2023-04-15T07:56:57.195Z,0.97
2023-04-15T07:59:24.919Z,1.00
2023-04-15T08:01:54.231Z,1.10
2023-04-15T08:04:22.413Z,6.77
2023-04-15T08:06:50.311Z,1.10
2023-04-15T08:09:18.011Z,1.00
2023-04-15T08:11:45.991Z,1.23
2023-04-15T08:14:15.061Z,2.17
2023-04-15T08:16:42.746Z,1.40
2023-04-15T08:19:10.441Z,1.63
2023-04-15T08:21:38.208Z,2.70
2023-04-15T08:24:06.825Z,1.00
2023-04-15T08:26:34.607Z,2.35
2023-04-15T08:29:02.699Z,1.50
2023-04-15T08:31:32.336Z,1.00
2023-04-15T08:34:00.281Z,1.40
2023-04-15T08:36:28.429Z,1.10
2023-04-15T08:38:56.331Z,1.10
2023-04-15T08:41:26.076Z,1.10
2023-04-15T08:43:55.543Z,1.30
2023-04-15T08:46:24.143Z,1.67
2023-04-15T08:48:57.356Z,1.40
2023-04-15T08:51:25.701Z,1.10
2023-04-15T08:53:55.467Z,1.00
2023-04-15T08:56:26.672Z,1.03
2023-04-15T08:58:54.811Z,1.00
2023-04-15T09:01:23.249Z,1.30
2023-04-15T09:03:51.388Z,1.00
2023-04-15T09:06:21.546Z,1.30
2023-04-15T09:08:49.267Z,1.00
2023-04-15T09:11:19.435Z,1.10
2023-04-15T09:13:48.208Z,0.90
2023-04-15T09:16:16.005Z,1.00
2023-04-15T09:18:43.935Z,2.53
2023-04-15T09:21:14.113Z,0.90
2023-04-15T09:23:55.923Z,1.10
2023-04-15T09:26:32.999Z,1.37
2023-04-15T09:29:05.340Z,1.10
2023-04-15T09:31:33.085Z,1.00
2023-04-15T09:34:01.167Z,0.93
2023-04-15T09:36:30.388Z,1.97
2023-04-15T09:39:01.083Z,1.10
2023-04-15T09:41:29.215Z,1.00
2023-04-15T09:43:56.923Z,1.00
2023-04-15T09:46:43.050Z,1.10
2023-04-15T09:49:11.362Z,1.43
2023-04-15T09:51:39.527Z,1.00
2023-04-15T09:54:08.586Z,1.00
2023-04-15T09:56:38.326Z,1.50
2023-04-15T09:59:06.860Z,1.00
2023-04-15T10:01:34.835Z,1.00
2023-04-15T10:04:05.972Z,1.00
2023-04-15T10:06:35.550Z,1.00
2023-04-15T10:09:03.595Z,1.00
2023-04-15T10:11:33.499Z,1.00
2023-04-15T10:14:01.804Z,2.30
2023-04-15T10:16:33.454Z,1.10
2023-04-15T10:19:03.725Z,1.10
2023-04-15T10:21:32.053Z,1.00
2023-04-15T10:23:59.880Z,28.20
2023-04-15T10:26:28.309Z,18.97
2023-04-15T10:29:00.189Z,20.10
2023-04-15T10:31:28.258Z,38.43
2023-04-15T10:33:56.463Z,15.70
2023-04-15T10:36:24.491Z,37.93
2023-04-15T10:38:52.177Z,21.73
2023-04-15T10:41:21.831Z,19.50
2023-04-15T10:43:51.747Z,27.53
2023-04-15T10:46:37.628Z,35.87
2023-04-15T10:49:10.898Z,19.93
2023-04-15T10:51:41.623Z,23.67
2023-04-15T10:54:14.274Z,14.23
2023-04-15T10:56:43.163Z,17.97
2023-04-15T10:59:11.081Z,17.00
2023-04-15T11:01:54.866Z,22.00
2023-04-15T11:04:53.148Z,24.67
2023-04-15T11:07:37.433Z,14.77
2023-04-15T11:10:25.964Z,16.37
2023-04-15T11:12:55.463Z,14.00
2023-04-15T11:15:31.155Z,19.33
2023-04-15T11:18:09.313Z,20.67
2023-04-15T11:20:38.092Z,5.07
2023-04-15T11:23:14.054Z,5.73
2023-04-15T11:25:43.673Z,4.23
2023-04-15T11:28:13.751Z,5.77
2023-04-15T11:30:43.630Z,1.30
2023-04-15T11:33:13.965Z,5.63
2023-04-15T11:35:42.487Z,4.23
2023-04-15T11:38:11.880Z,5.20
2023-04-15T11:40:40.181Z,5.97
2023-04-15T11:43:09.415Z,3.73
2023-04-15T11:45:37.828Z,6.13
2023-04-15T11:48:10.431Z,3.50
2023-04-15T11:50:41.482Z,10.63
2023-04-15T11:53:10.875Z,4.33
2023-04-15T11:55:46.941Z,3.30
2023-04-15T11:58:16.784Z,3.37
2023-04-15T12:00:49.182Z,5.50
2023-04-15T12:03:24.262Z,7.43
2023-04-15T12:06:11.504Z,4.70
2023-04-15T12:08:53.953Z,2.67
2023-04-15T12:11:22.360Z,4.87
2023-04-15T12:13:51.394Z,2.90
2023-04-15T12:16:19.826Z,7.47
2023-04-15T12:18:48.181Z,5.90
2023-04-15T12:21:19.563Z,2.73
2023-04-15T12:23:51.436Z,3.87
2023-04-15T12:26:19.234Z,9.20
2023-04-15T12:28:47.612Z,2.50
2023-04-15T12:31:15.748Z,5.50
2023-04-15T12:33:43.487Z,7.63
2023-04-15T12:36:11.168Z,3.00
2023-04-15T12:38:40.244Z,3.90
2023-04-15T12:41:07.944Z,3.53
2023-04-15T12:43:35.962Z,2.13
2023-04-15T12:46:04.776Z,1.37
2023-04-15T12:48:33.114Z,10.77
2023-04-15T12:51:00.888Z,2.67
2023-04-15T12:53:28.745Z,4.70
2023-04-15T12:55:57.958Z,2.03
2023-04-15T12:58:25.664Z,2.20
2023-04-15T13:00:53.427Z,1.67
2023-04-15T13:03:21.296Z,2.50
2023-04-15T13:05:49.086Z,6.73
2023-04-15T13:08:16.871Z,1.13
2023-04-15T13:10:44.730Z,1.27
2023-04-15T13:13:13.752Z,1.20
2023-04-15T13:15:41.473Z,1.73
2023-04-15T13:18:09.640Z,1.30
2023-04-15T13:20:37.385Z,13.60
2023-04-15T13:23:05.117Z,1.10
2023-04-15T13:25:32.836Z,2.00
2023-04-15T13:28:01.205Z,3.67
2023-04-15T13:30:31.214Z,1.30
2023-04-15T13:32:59.135Z,6.63
2023-04-15T13:35:27.011Z,7.80
2023-04-15T13:37:55.183Z,8.73
2023-04-15T13:40:22.910Z,1.23
2023-04-15T13:42:50.647Z,1.40
2023-04-15T13:45:18.415Z,1.10
2023-04-15T13:47:47.610Z,1.10
2023-04-15T13:50:15.353Z,1.93
2023-04-15T13:52:43.026Z,2.93
2023-04-15T13:55:22.345Z,1.00
2023-04-15T13:57:51.910Z,3.33
2023-04-15T14:00:19.755Z,2.17
2023-04-15T14:02:49.013Z,1.53
2023-04-15T14:05:17.016Z,1.63
2023-04-15T14:07:45.003Z,8.33
2023-04-15T14:10:12.992Z,1.53
2023-04-15T14:12:40.713Z,1.10
2023-04-15T14:15:09.680Z,1.00
2023-04-15T14:17:37.570Z,1.00
2023-04-15T14:20:08.804Z,3.90
2023-04-15T14:22:36.522Z,1.30
2023-04-15T14:25:04.558Z,2.10
2023-04-15T14:27:32.245Z,4.77
2023-04-15T14:29:59.950Z,7.00
2023-04-15T14:32:27.835Z,4.77
2023-04-15T14:34:55.537Z,1.20
2023-04-15T14:37:24.562Z,1.10
2023-04-15T14:39:52.235Z,1.90
2023-04-15T14:42:19.913Z,1.13
2023-04-15T14:44:47.600Z,1.17
2023-04-15T14:47:16.085Z,2.13
2023-04-15T14:49:43.860Z,1.70
2023-04-15T14:52:11.597Z,1.10
2023-04-15T14:54:40.641Z,1.13
2023-04-15T14:57:09.015Z,1.00
2023-04-15T14:59:36.685Z,1.00
2023-04-15T15:02:04.734Z,1.00
2023-04-15T15:04:33.558Z,1.87
2023-04-15T15:07:01.514Z,1.00
2023-04-15T15:09:29.833Z,1.00
2023-04-15T15:11:58.895Z,1.20
2023-04-15T15:14:27.240Z,2.70
2023-04-15T15:16:55.006Z,1.10
2023-04-15T15:19:23.583Z,1.23
2023-04-15T15:21:51.305Z,1.23
2023-04-15T15:24:19.038Z,1.00
2023-04-15T15:26:47.009Z,1.20
2023-04-15T15:29:16.054Z,2.77
2023-04-15T15:31:43.815Z,3.67
2023-04-15T15:34:11.852Z,1.10
2023-04-15T15:36:39.605Z,1.10
2023-04-15T15:39:07.462Z,2.70
2023-04-15T15:41:36.482Z,2.40
2023-04-15T15:44:04.318Z,0.97
2023-04-15T15:46:33.445Z,1.10
2023-04-15T15:49:03.918Z,1.10
2023-04-15T15:51:31.979Z,1.10
2023-04-15T15:53:59.739Z,1.00
2023-04-15T15:56:27.797Z,1.00
2023-04-15T15:58:55.484Z,1.20
2023-04-15T16:01:23.909Z,1.30
2023-04-15T16:03:53.187Z,1.00
2023-04-15T16:06:21.040Z,1.30
2023-04-15T16:08:48.729Z,1.10
2023-04-15T16:11:16.528Z,1.10
2023-04-15T16:13:44.251Z,1.53
2023-04-15T16:16:12.434Z,1.00
2023-04-15T16:18:40.446Z,1.00
2023-04-15T16:21:09.832Z,1.53
2023-04-15T16:23:37.788Z,0.90
2023-04-15T16:26:06.479Z,0.93
2023-04-15T16:28:34.172Z,1.20
2023-04-15T16:31:02.513Z,1.37
2023-04-15T16:33:30.230Z,1.00
2023-04-15T16:35:57.932Z,1.00
2023-04-15T16:38:27.050Z,1.00
2023-04-15T16:40:55.219Z,1.00
2023-04-15T16:43:22.915Z,1.00
2023-04-15T16:45:51.410Z,1.17
2023-04-15T16:48:19.516Z,1.00
2023-04-15T16:50:47.390Z,1.10
2023-04-15T16:53:15.890Z,1.47
2023-04-15T16:55:44.887Z,1.40
2023-04-15T16:58:12.601Z,1.47
2023-04-15T17:00:40.321Z,0.90
2023-04-15T17:03:08.212Z,1.90
2023-04-15T17:05:36.186Z,1.77
2023-04-15T17:08:05.407Z,1.30
2023-04-15T17:10:33.158Z,1.30
2023-04-15T17:13:02.233Z,1.10
2023-04-15T17:15:30.014Z,1.20
2023-04-15T17:17:57.722Z,3.90
2023-04-15T17:20:26.344Z,1.17
2023-04-15T17:22:54.129Z,1.30
2023-04-15T17:25:23.762Z,1.20
2023-04-15T17:27:51.507Z,1.60
2023-04-15T17:30:20.665Z,1.30
2023-04-15T17:32:48.418Z,1.23
2023-04-15T17:35:16.197Z,1.00
2023-04-15T17:37:43.943Z,1.57
2023-04-15T17:40:13.647Z,1.30
2023-04-15T17:42:41.505Z,1.00
2023-04-15T17:45:10.014Z,1.00
2023-04-15T17:47:39.059Z,1.10
2023-04-15T17:50:08.343Z,1.10
2023-04-15T17:52:36.260Z,1.00
2023-04-15T17:55:04.150Z,1.50
2023-04-15T17:57:31.868Z,1.30
2023-04-15T17:59:59.641Z,1.20
2023-04-15T18:02:27.595Z,3.77
2023-04-15T18:04:56.933Z,1.67
2023-04-15T18:07:24.788Z,1.00
2023-04-15T18:09:55.740Z,1.30
2023-04-15T18:12:23.481Z,1.20
2023-04-15T18:14:51.158Z,0.97
2023-04-15T18:17:20.144Z,1.40
2023-04-15T18:19:47.915Z,0.93
2023-04-15T18:22:17.075Z,1.00
2023-04-15T18:24:44.879Z,1.40
2023-04-15T18:27:12.663Z,1.00
2023-04-15T18:29:40.396Z,1.10
2023-04-15T18:32:08.259Z,1.00
2023-04-15T18:34:36.153Z,1.00
2023-04-15T18:37:05.455Z,2.50
2023-04-15T18:39:34.668Z,1.00
2023-04-15T18:42:03.018Z,1.97
2023-04-15T18:44:31.472Z,1.00
2023-04-15T18:46:59.202Z,1.83
2023-04-15T18:49:27.276Z,0.97
2023-04-15T18:51:55.069Z,0.97
2023-04-15T18:54:22.752Z,1.00
2023-04-15T18:56:52.089Z,2.00
2023-04-15T18:59:29.520Z,0.90
2023-04-15T19:01:58.912Z,1.00
2023-04-15T19:04:28.679Z,1.97
2023-04-15T19:06:56.930Z,1.00
2023-04-15T19:09:24.717Z,1.00
2023-04-15T19:11:53.756Z,1.00
2023-04-15T19:14:21.588Z,0.90
2023-04-15T19:16:49.290Z,1.00
2023-04-15T19:19:17.025Z,1.27
2023-04-15T19:21:45.421Z,1.10
2023-04-15T19:24:13.234Z,1.00
2023-04-15T19:26:40.933Z,1.00
2023-04-15T19:29:10.058Z,1.00
2023-04-15T19:31:37.756Z,1.27
2023-04-15T19:34:05.712Z,1.10
2023-04-15T19:36:33.789Z,1.00
2023-04-15T19:39:01.728Z,0.93
2023-04-15T19:41:29.515Z,2.03
2023-04-15T19:43:57.262Z,1.00
2023-04-15T19:46:27.106Z,1.00
2023-04-15T19:48:55.729Z,2.07
2023-04-15T19:51:23.550Z,1.00
2023-04-15T19:53:53.707Z,0.93
2023-04-15T19:56:23.662Z,1.00
2023-04-15T19:58:52.908Z,1.00
2023-04-15T20:01:20.745Z,1.00
2023-04-15T20:03:50.175Z,1.00
2023-04-15T20:06:17.933Z,1.30
2023-04-15T20:08:45.736Z,1.43
2023-04-15T20:11:15.309Z,1.00
2023-04-15T20:13:43.090Z,1.10
2023-04-15T20:16:11.658Z,1.00
2023-04-15T20:18:39.395Z,1.10
2023-04-15T20:21:08.516Z,1.00
2023-04-15T20:23:38.130Z,1.00
2023-04-15T20:26:06.338Z,2.17
2023-04-15T20:28:34.163Z,1.00
2023-04-15T20:31:02.267Z,1.00
2023-04-15T20:33:30.436Z,5.23
2023-04-15T20:35:58.625Z,1.13
2023-04-15T20:38:27.687Z,0.90
2023-04-15T20:40:55.537Z,1.10
2023-04-15T20:43:23.348Z,1.83
2023-04-15T20:45:53.822Z,1.00
2023-04-15T20:48:21.954Z,1.00
2023-04-15T20:50:49.728Z,2.00
2023-04-15T20:53:17.740Z,1.00
2023-04-15T20:55:46.743Z,1.00
2023-04-15T20:58:14.449Z,1.40
2023-04-15T21:00:42.184Z,1.00
2023-04-15T21:03:10.021Z,0.90
2023-04-15T21:05:37.791Z,1.40
2023-04-15T21:08:05.874Z,1.00
2023-04-15T21:10:35.262Z,1.00
2023-04-15T21:13:04.380Z,1.00
2023-04-15T21:15:32.093Z,1.40
2023-04-15T21:17:59.846Z,1.53
2023-04-15T21:20:27.924Z,0.97
2023-04-15T21:22:55.639Z,1.00
2023-04-15T21:25:23.496Z,0.90
2023-04-15T21:27:51.159Z,1.00
2023-04-15T21:30:20.317Z,0.90
2023-04-15T21:32:48.067Z,0.90
2023-04-15T21:35:15.888Z,1.00
2023-04-15T21:37:43.580Z,1.10
2023-04-15T21:40:11.786Z,1.00
2023-04-15T21:42:39.474Z,2.70
2023-04-15T21:45:08.087Z,1.10
2023-04-15T21:48:00.925Z,1.00
2023-04-15T21:50:24.967Z,1.00
2023-04-15T21:52:52.695Z,1.00
2023-04-15T21:55:21.358Z,1.00
2023-04-15T21:57:49.089Z,0.90
2023-04-15T22:00:17.791Z,1.07
2023-04-15T22:02:46.896Z,1.00
2023-04-15T22:05:14.732Z,1.00
2023-04-15T22:07:42.438Z,0.93
2023-04-15T22:10:10.741Z,1.00
2023-04-15T22:12:38.431Z,1.00
2023-04-15T22:15:07.252Z,1.00
2023-04-15T22:17:35.297Z,0.97
2023-04-15T22:20:04.636Z,1.00
2023-04-15T22:22:43.320Z,1.00
2023-04-15T22:25:12.416Z,1.00
2023-04-15T22:27:40.126Z,1.50
2023-04-15T22:30:09.474Z,1.10
2023-04-15T22:32:37.203Z,0.97
2023-04-15T22:35:06.828Z,1.00
2023-04-15T22:37:34.513Z,1.30
2023-04-15T22:40:02.791Z,1.00
2023-04-15T22:42:30.482Z,1.00
2023-04-15T22:44:58.184Z,0.97
2023-04-15T22:47:26.226Z,1.03
2023-04-15T22:49:54.035Z,1.40
2023-04-15T22:52:29.918Z,1.00
2023-04-15T22:54:58.838Z,1.23
2023-04-15T22:57:27.731Z,1.00
2023-04-15T22:59:55.892Z,1.00
2023-04-15T23:02:23.646Z,1.07
2023-04-15T23:04:51.574Z,1.00
2023-04-15T23:07:19.404Z,1.00
2023-04-15T23:09:48.445Z,1.00
2023-04-15T23:12:16.228Z,0.90
2023-04-15T23:14:43.941Z,1.10
2023-04-15T23:17:11.629Z,1.37
2023-04-15T23:19:39.344Z,1.53
2023-04-15T23:22:10.330Z,1.10
2023-04-15T23:24:38.035Z,1.30
2023-04-15T23:27:07.048Z,1.00
2023-04-15T23:29:34.767Z,1.00
2023-04-15T23:32:02.620Z,1.10
2023-04-15T23:34:30.471Z,1.00
2023-04-15T23:36:58.177Z,1.17
2023-04-15T23:39:25.903Z,1.20
2023-04-15T23:41:53.909Z,1.00
2023-04-15T23:44:22.920Z,0.93
2023-04-15T23:46:51.184Z,1.00
2023-04-15T23:49:20.386Z,1.00
2023-04-15T23:51:48.564Z,0.93
2023-04-15T23:54:16.364Z,1.00
2023-04-15T23:56:44.153Z,1.00
2023-04-15T23:59:12.072Z,3.10
